Time;durP1;ratioP1;P1;durP2;ratioP2;P2;SDS_P1;SDS_P2;PMS_P1;PMS_P2;Temp;Humidity;BMP_temperature;BMP_pressure;BME280_temperature;BME280_humidity;BME280_pressure;Samples;Min_cycle;Max_cycle;Signal;HPM_P1;HPM_P2
2023/03/15 00:03:14;;;;;;;5.40;4.50;;;;;;;14.37;51.77;98282.96;144806;1257;98410;-80
2023/03/15 00:06:36;;;;;;;7.00;4.70;;;;;;;14.38;51.88;98291.70;144649;1262;107101;-82
2023/03/15 00:09:58;;;;;;;6.10;4.60;;;;;;;14.39;51.86;98302.50;144919;1263;98126;-81
2023/03/15 00:13:20;;;;;;;8.20;5.30;;;;;;;14.39;51.78;98308.61;144888;1262;98058;-79
2023/03/15 00:16:42;;;;;;;4.50;3.70;;;;;;;14.39;51.75;98315.42;145030;1261;97992;-81
2023/03/15 00:20:05;;;;;;;5.30;3.90;;;;;;;14.40;51.80;98319.59;145071;1270;97954;-81
2023/03/15 00:23:27;;;;;;;6.60;4.60;;;;;;;14.40;51.65;98323.62;144912;1257;98820;-80
2023/03/15 00:26:49;;;;;;;5.50;4.10;;;;;;;14.40;51.72;98325.19;145103;1262;97996;-79
2023/03/15 00:30:13;;;;;;;4.60;3.80;;;;;;;14.40;51.70;98333.77;144889;1262;99184;-79
2023/03/15 00:33:35;;;;;;;4.30;3.60;;;;;;;14.40;51.75;98341.45;145112;1260;97998;-81
2023/03/15 00:36:56;;;;;;;5.50;4.00;;;;;;;14.42;51.72;98350.48;144924;1262;98416;-80
2023/03/15 00:40:18;;;;;;;5.60;4.20;;;;;;;14.43;51.63;98356.95;144737;1257;110610;-79
2023/03/15 00:43:41;;;;;;;6.50;3.60;;;;;;;14.45;51.76;98378.92;144875;1257;97926;-79
2023/03/15 00:47:02;;;;;;;4.50;3.90;;;;;;;14.43;51.55;98425.63;145002;1263;99241;-79
2023/03/15 00:50:25;;;;;;;5.10;3.00;;;;;;;14.40;51.51;98456.45;145144;1262;101980;-81
2023/03/15 00:53:48;;;;;;;4.90;3.10;;;;;;;14.36;51.35;98468.25;144848;1263;97927;-79
2023/03/15 00:57:10;;;;;;;4.80;2.50;;;;;;;14.31;51.12;98485.13;144916;1264;98001;-80
2023/03/15 01:00:31;;;;;;;4.10;2.70;;;;;;;14.28;51.09;98508.25;144862;1260;97934;-80
2023/03/15 01:03:54;;;;;;;3.80;2.60;;;;;;;14.24;51.03;98531.94;144891;1260;107502;-79
2023/03/15 01:07:17;;;;;;;5.50;2.80;;;;;;;14.20;50.97;98551.06;144962;1262;108569;-80
2023/03/15 01:10:39;;;;;;;2.60;2.00;;;;;;;14.15;51.01;98561.80;144937;1260;99194;-79
2023/03/15 01:14:03;;;;;;;2.30;1.40;;;;;;;14.11;50.92;98579.89;144980;1262;99225;-80
2023/03/15 01:17:25;;;;;;;2.10;1.70;;;;;;;14.05;50.84;98596.93;144774;1270;97928;-80
2023/03/15 01:20:47;;;;;;;3.30;2.00;;;;;;;14.00;50.77;98611.17;144710;1262;98851;-80
2023/03/15 01:24:13;;;;;;;2.60;1.70;;;;;;;13.95;50.76;98624.20;144873;1257;98388;-81
2023/03/15 01:27:35;;;;;;;2.00;1.40;;;;;;;13.88;50.73;98642.83;144960;1260;97992;-79
2023/03/15 01:30:58;;;;;;;3.80;1.30;;;;;;;13.81;50.74;98644.52;145114;1262;98843;-80
2023/03/15 01:34:20;;;;;;;1.60;1.30;;;;;;;13.75;50.68;98659.99;144826;1263;97992;-79
2023/03/15 01:37:42;;;;;;;1.50;1.00;;;;;;;13.68;50.76;98674.77;144780;1263;98042;-81
2023/03/15 01:41:04;;;;;;;1.80;1.30;;;;;;;13.62;50.73;98687.08;144766;1260;111131;-80
2023/03/15 01:44:53;;;;;;;1.60;1.20;;;;;;;13.57;50.74;98702.02;144906;1262;97912;-80
2023/03/15 01:48:15;;;;;;;1.60;1.00;;;;;;;13.50;50.72;98704.39;144955;1263;111234;-80
2023/03/15 01:51:48;;;;;;;1.10;1.00;;;;;;;13.43;50.61;98709.02;144824;1270;97998;-79
2023/03/15 01:55:16;;;;;;;1.30;1.20;;;;;;;13.37;50.56;98723.59;144844;1263;111025;-79
2023/03/15 01:58:51;;;;;;;2.60;1.30;;;;;;;13.31;50.46;98746.20;144856;1263;112213;-80
2023/03/15 02:02:14;;;;;;;1.40;0.80;;;;;;;13.25;50.53;98760.05;145121;1272;97912;-80
2023/03/15 02:05:44;;;;;;;2.10;0.90;;;;;;;13.19;50.59;98779.29;144728;1270;98094;-79
2023/03/15 02:09:13;;;;;;;0.80;0.60;;;;;;;13.13;50.67;98796.80;144860;1262;112274;-81
2023/03/15 02:12:44;;;;;;;1.80;0.60;;;;;;;13.08;50.68;98807.15;144755;1273;111728;-79
2023/03/15 02:16:06;;;;;;;1.90;1.10;;;;;;;13.04;50.56;98824.45;144922;1263;111199;-81
2023/03/15 02:19:43;;;;;;;1.40;0.70;;;;;;;12.99;50.67;98838.29;144835;1263;112188;-80
2023/03/15 02:23:07;;;;;;;1.70;0.60;;;;;;;12.95;50.50;98852.46;144717;1263;113724;-82
2023/03/15 02:26:43;;;;;;;1.00;0.60;;;;;;;12.90;50.50;98858.63;145012;1279;111986;-79
2023/03/15 02:30:06;;;;;;;2.30;0.60;;;;;;;12.87;50.58;98858.64;144964;1260;112562;-81
2023/03/15 02:33:32;;;;;;;1.60;0.70;;;;;;;12.83;50.50;98875.42;144770;1262;99767;-80
2023/03/15 02:36:54;;;;;;;1.40;0.60;;;;;;;12.79;50.47;98887.49;144922;1263;110852;-79
2023/03/15 02:40:21;;;;;;;1.80;0.60;;;;;;;12.74;50.34;98895.55;144842;1259;97986;-81
2023/03/15 02:43:43;;;;;;;0.80;0.40;;;;;;;12.71;50.38;98901.86;144807;1257;110884;-80
2023/03/15 02:47:09;;;;;;;0.70;0.50;;;;;;;12.68;50.37;98911.11;144913;1270;97989;-81
2023/03/15 02:50:31;;;;;;;1.30;0.70;;;;;;;12.64;50.39;98923.54;144944;1262;111094;-83
2023/03/15 02:53:53;;;;;;;2.20;0.50;;;;;;;12.59;50.32;98935.59;144779;1263;98052;-81
2023/03/15 02:57:18;;;;;;;1.40;0.60;;;;;;;12.55;50.43;98942.61;145105;1261;99252;-81
2023/03/15 03:00:40;;;;;;;0.70;0.40;;;;;;;12.52;50.14;98947.15;144989;1264;102197;-79
2023/03/15 03:04:02;;;;;;;0.70;0.40;;;;;;;12.48;50.32;98943.86;144892;1269;99210;-80
2023/03/15 03:07:24;;;;;;;2.90;0.60;;;;;;;12.46;50.23;98956.61;144793;1270;97922;-81
2023/03/15 03:10:51;;;;;;;0.90;0.60;;;;;;;12.43;50.28;98978.39;144956;1260;108400;-80
2023/03/15 03:14:12;;;;;;;1.90;0.70;;;;;;;12.41;50.28;98986.08;144939;1259;99192;-80
2023/03/15 03:17:36;;;;;;;1.80;1.20;;;;;;;12.38;50.24;98998.13;144965;1261;99222;-80
2023/03/15 03:20:58;;;;;;;0.40;0.40;;;;;;;12.35;50.25;98998.66;144891;1261;97988;-80
2023/03/15 03:24:20;;;;;;;0.80;0.60;;;;;;;12.32;50.15;98998.85;145024;1260;97924;-82
2023/03/15 03:27:42;;;;;;;0.40;0.40;;;;;;;12.29;50.17;99007.59;144951;1263;98092;-80
2023/03/15 03:31:05;;;;;;;1.40;0.50;;;;;;;12.27;50.16;99021.17;144727;1258;97957;-80
2023/03/15 03:34:28;;;;;;;1.20;0.50;;;;;;;12.25;50.13;99024.31;145128;1256;98011;-82
2023/03/15 03:37:52;;;;;;;3.10;0.50;;;;;;;12.23;50.07;99029.04;144853;1263;97992;-80
2023/03/15 03:41:19;;;;;;;;;;;;;;;12.21;50.06;99042.27;145009;1261;111871;-80
2023/03/15 03:44:41;;;;;;;1.50;0.80;;;;;;;12.19;50.09;99043.00;144859;1260;97852;-82
2023/03/15 03:48:04;;;;;;;0.80;0.40;;;;;;;12.17;50.09;99047.52;144939;1263;99261;-80
2023/03/15 03:51:26;;;;;;;0.80;0.60;;;;;;;12.15;50.18;99052.42;144980;1257;103135;-80
2023/03/15 03:54:48;;;;;;;1.40;0.50;;;;;;;12.13;49.98;99055.20;144772;1262;98070;-81
2023/03/15 03:58:10;;;;;;;1.50;0.50;;;;;;;12.12;49.97;99066.35;145172;1261;97985;-81
2023/03/15 04:01:40;;;;;;;1.60;0.40;;;;;;;12.10;49.96;99070.38;144783;1263;108482;-81
2023/03/15 04:05:04;;;;;;;1.20;0.70;;;;;;;12.09;49.79;99079.95;144948;1260;107563;-82
2023/03/15 04:08:26;;;;;;;1.10;0.60;;;;;;;12.07;49.93;99087.45;144898;1257;97929;-80
2023/03/15 04:11:49;;;;;;;1.20;0.40;;;;;;;12.05;49.95;99097.04;145008;1257;98114;-81
2023/03/15 04:15:11;;;;;;;1.20;0.60;;;;;;;12.03;49.95;99105.73;144734;1270;99236;-82
2023/03/15 04:18:33;;;;;;;1.70;0.50;;;;;;;12.01;49.94;99117.06;145111;1260;97927;-81
2023/03/15 04:21:56;;;;;;;2.70;0.80;;;;;;;12.00;49.88;99120.20;144981;1263;97955;-81
2023/03/15 04:25:56;;;;;;;1.50;0.80;;;;;;;11.98;49.93;99125.44;144707;1260;98235;-80
2023/03/15 04:29:44;;;;;;;3.50;0.60;;;;;;;11.96;49.86;99129.27;144775;1260;99123;-80
2023/03/15 04:33:27;;;;;;;0.90;0.50;;;;;;;11.95;49.85;99130.31;144757;1270;98047;-81
2023/03/15 04:37:21;;;;;;;2.50;0.80;;;;;;;11.94;49.80;99134.31;144721;1257;99570;-82
2023/03/15 04:41:09;;;;;;;1.60;0.70;;;;;;;11.92;49.80;99145.12;144719;1269;97965;-81
2023/03/15 04:44:57;;;;;;;1.70;0.50;;;;;;;11.90;49.74;99147.90;144850;1262;97918;-82
2023/03/15 04:48:51;;;;;;;1.10;0.40;;;;;;;11.89;49.89;99159.40;144768;1271;97974;-81
2023/03/15 04:52:39;;;;;;;1.10;0.60;;;;;;;11.88;49.89;99161.32;144916;1261;97909;-82
2023/03/15 04:56:19;;;;;;;0.90;0.50;;;;;;;11.87;49.75;99161.66;144903;1260;99235;-80
2023/03/15 05:00:14;;;;;;;1.10;0.60;;;;;;;11.85;49.79;99159.23;145056;1271;97918;-82
2023/03/15 05:04:02;;;;;;;1.00;0.50;;;;;;;11.84;49.59;99168.96;144542;1279;120883;-81
2023/03/15 05:07:49;;;;;;;1.80;0.60;;;;;;;11.82;49.63;99181.32;144850;1260;97960;-81
2023/03/15 05:11:46;;;;;;;1.70;0.70;;;;;;;11.81;49.48;99192.79;144626;1261;99226;-81
2023/03/15 05:15:27;;;;;;;1.80;0.40;;;;;;;11.80;49.60;99196.79;144883;1261;97963;-80
2023/03/15 05:19:28;;;;;;;3.10;0.60;;;;;;;11.79;49.42;99201.48;144844;1270;97893;-81
2023/03/15 05:23:09;;;;;;;0.80;0.60;;;;;;;11.78;49.42;99210.91;144836;1260;97895;-83
2023/03/15 05:26:57;;;;;;;2.40;0.60;;;;;;;11.78;49.31;99219.09;144740;1261;97926;-83
2023/03/15 05:30:54;;;;;;;2.40;0.50;;;;;;;11.77;49.38;99226.73;144692;1257;97995;-80
2023/03/15 05:34:39;;;;;;;1.50;0.80;;;;;;;11.77;49.33;99230.39;144888;1257;99175;-81
2023/03/15 05:38:18;;;;;;;1.50;0.80;;;;;;;11.77;49.32;99235.96;144893;1261;98005;-83
2023/03/15 05:41:58;;;;;;;0.90;0.50;;;;;;;11.77;49.38;99237.00;144940;1270;97938;-81
2023/03/15 05:45:47;;;;;;;1.70;0.60;;;;;;;11.77;49.34;99237.88;144950;1259;97991;-81
2023/03/15 05:49:25;;;;;;;2.20;0.50;;;;;;;11.77;49.09;99248.66;144932;1260;97903;-82
2023/03/15 05:52:59;;;;;;;2.10;0.90;;;;;;;11.78;49.16;99257.38;145083;1261;98006;-81
2023/03/15 05:56:30;;;;;;;1.20;0.50;;;;;;;11.79;49.18;99265.73;144864;1257;98839;-81
2023/03/15 06:00:15;;;;;;;1.90;0.90;;;;;;;11.80;48.96;99282.09;144778;1272;97988;-81
2023/03/15 06:03:36;;;;;;;1.90;0.80;;;;;;;11.80;49.04;99297.40;145025;1260;97996;-81
2023/03/15 06:07:04;;;;;;;2.50;0.80;;;;;;;11.80;48.94;99297.92;145092;1272;97903;-81
2023/03/15 06:10:26;;;;;;;3.50;1.30;;;;;;;11.82;48.82;99296.20;144762;1270;97921;-81
2023/03/15 06:13:49;;;;;;;2.80;0.90;;;;;;;11.83;48.65;99301.59;144933;1256;97867;-80
2023/03/15 06:17:24;;;;;;;1.50;0.80;;;;;;;11.85;48.67;99300.08;144842;1261;110445;-80
2023/03/15 06:20:46;;;;;;;3.20;1.40;;;;;;;11.87;48.54;99305.45;144661;1264;98005;-80
2023/03/15 06:24:08;;;;;;;7.90;0.80;;;;;;;11.88;48.58;99314.00;144864;1257;97957;-80
2023/03/15 06:27:30;;;;;;;1.70;0.80;;;;;;;11.91;48.40;99322.35;144957;1279;103112;-81
2023/03/15 06:30:52;;;;;;;1.70;0.80;;;;;;;11.93;48.69;99335.41;144884;1260;98062;-80
2023/03/15 06:34:17;;;;;;;2.40;1.10;;;;;;;11.95;48.54;99340.81;144962;1260;103570;-80
2023/03/15 06:37:40;;;;;;;2.00;0.80;;;;;;;11.98;48.36;99342.04;144916;1256;97993;-82
2023/03/15 06:41:04;;;;;;;3.10;0.90;;;;;;;12.01;48.34;99350.23;145025;1260;98835;-80
2023/03/15 06:44:28;;;;;;;2.30;0.90;;;;;;;12.04;48.26;99371.83;145047;1257;103034;-83
2023/03/15 06:47:53;;;;;;;2.40;0.90;;;;;;;12.06;48.34;99389.42;145029;1260;103052;-82
2023/03/15 06:51:15;;;;;;;4.00;1.30;;;;;;;12.09;48.16;99396.57;144809;1273;98021;-82
2023/03/15 06:54:39;;;;;;;2.80;1.40;;;;;;;12.12;48.17;99407.36;144908;1260;99235;-83
2023/03/15 06:58:04;;;;;;;2.00;1.00;;;;;;;12.16;48.22;99407.38;144794;1260;103119;-82
2023/03/15 07:01:25;;;;;;;2.90;1.10;;;;;;;12.21;48.03;99415.56;144972;1257;98268;-83
2023/03/15 07:04:48;;;;;;;1.60;0.80;;;;;;;12.27;48.12;99429.34;144931;1260;99191;-81
2023/03/15 07:08:10;;;;;;;5.60;0.90;;;;;;;12.31;47.82;99438.58;144991;1260;107205;-81
2023/03/15 07:11:32;;;;;;;2.80;1.00;;;;;;;12.35;47.71;99433.89;145013;1260;98690;-76
2023/03/15 07:14:54;;;;;;;2.50;1.10;;;;;;;12.38;47.69;99442.42;144989;1257;97965;-76
2023/03/15 07:18:15;;;;;;;4.00;1.10;;;;;;;12.44;47.53;99447.66;145123;1257;97951;-75
2023/03/15 07:21:37;;;;;;;1.50;0.70;;;;;;;12.49;47.50;99448.19;144903;1261;97978;-82
2023/03/15 07:24:59;;;;;;;2.10;1.10;;;;;;;12.53;47.40;99442.08;144965;1257;97995;-80
2023/03/15 07:28:23;;;;;;;2.00;1.20;;;;;;;12.59;47.32;99447.15;144887;1260;98270;-81
2023/03/15 07:31:44;;;;;;;1.40;0.90;;;;;;;12.70;47.27;99444.88;144931;1260;99163;-79
2023/03/15 07:35:06;;;;;;;1.70;1.00;;;;;;;12.75;47.12;99448.19;145126;1258;97918;-82
2023/03/15 07:38:28;;;;;;;2.60;1.30;;;;;;;12.79;47.11;99453.95;145014;1260;97972;-80
2023/03/15 07:41:53;;;;;;;1.70;0.90;;;;;;;12.85;46.98;99449.40;144944;1261;111054;-81
2023/03/15 07:45:23;;;;;;;2.80;1.60;;;;;;;13.01;46.91;99448.69;145034;1261;112034;-81
2023/03/15 07:48:47;;;;;;;1.50;1.00;;;;;;;13.18;46.86;99451.98;144894;1259;110787;-81
2023/03/15 07:52:10;;;;;;;2.40;1.00;;;;;;;13.27;46.61;99453.57;145166;1256;99334;-80
2023/03/15 07:55:34;;;;;;;2.70;1.10;;;;;;;13.31;46.63;99458.79;145222;1257;98371;-82
2023/03/15 07:58:55;;;;;;;3.20;1.30;;;;;;;13.35;46.51;99465.07;144875;1258;98149;-77
2023/03/15 08:02:19;;;;;;;4.50;1.30;;;;;;;13.38;46.29;99476.05;144663;1260;102139;-78
2023/03/15 08:05:41;;;;;;;2.60;1.20;;;;;;;13.50;46.30;99482.66;144509;1257;98059;-80
2023/03/15 08:09:04;;;;;;;3.20;1.20;;;;;;;13.83;46.14;99493.73;144869;1260;97988;-86
2023/03/15 08:12:26;;;;;;;4.00;2.30;;;;;;;14.48;45.95;99500.37;144717;1261;107476;-79
2023/03/15 08:15:48;;;;;;;3.10;2.10;;;;;;;15.77;45.19;99501.38;144654;1261;98041;-78
2023/03/15 08:19:10;;;;;;;2.40;1.90;;;;;;;16.86;44.24;99514.09;144640;1260;97909;-81
2023/03/15 08:22:32;;;;;;;2.00;1.30;;;;;;;18.18;42.98;99519.59;144681;1270;97989;-78
2023/03/15 08:25:53;;;;;;;5.40;1.40;;;;;;;19.61;41.64;99526.44;144790;1261;97909;-79
2023/03/15 08:29:15;;;;;;;4.50;1.60;;;;;;;20.63;40.19;99533.92;144597;1261;98303;-80
2023/03/15 08:32:39;;;;;;;5.80;1.30;;;;;;;21.37;38.94;99551.52;144948;1257;97949;-80
2023/03/15 08:36:01;;;;;;;2.80;1.40;;;;;;;21.50;37.98;99560.09;144993;1260;99216;-79
2023/03/15 08:39:23;;;;;;;2.10;1.30;;;;;;;20.93;37.73;99565.48;145008;1257;97905;-78
2023/03/15 08:42:44;;;;;;;4.30;1.40;;;;;;;20.32;37.71;99558.66;144720;1257;98018;-79
2023/03/15 08:46:06;;;;;;;2.10;1.30;;;;;;;19.79;38.03;99567.74;144953;1261;111920;-80
2023/03/15 08:49:28;;;;;;;2.00;1.10;;;;;;;19.34;38.38;99577.70;144856;1257;98304;-79
2023/03/15 08:52:50;;;;;;;2.90;1.40;;;;;;;19.09;38.57;99585.88;145175;1256;99213;-79
2023/03/15 08:56:12;;;;;;;3.50;1.60;;;;;;;19.08;38.66;99585.22;144772;1258;102116;-79
2023/03/15 08:59:34;;;;;;;2.80;1.10;;;;;;;19.03;38.75;99589.91;144748;1260;97922;-78
2023/03/15 09:02:55;;;;;;;4.30;1.90;;;;;;;18.83;38.86;99591.41;145081;1260;97929;-79
2023/03/15 09:06:17;;;;;;;2.10;1.00;;;;;;;18.74;38.99;99598.13;144792;1257;107417;-79
2023/03/15 09:09:39;;;;;;;2.90;1.30;;;;;;;18.82;39.13;99597.43;144665;1260;97918;-80
2023/03/15 09:13:01;;;;;;;2.20;1.20;;;;;;;18.93;38.96;99604.94;144685;1257;97973;-79
2023/03/15 09:16:23;;;;;;;3.20;1.50;;;;;;;19.04;38.94;99609.95;144936;1257;99216;-79
2023/03/15 09:19:45;;;;;;;2.10;1.30;;;;;;;19.09;38.77;99615.65;144696;1260;98037;-78
2023/03/15 09:23:07;;;;;;;3.40;1.60;;;;;;;19.12;38.67;99616.65;144864;1257;98172;-80
2023/03/15 09:26:29;;;;;;;2.90;1.10;;;;;;;19.08;38.64;99618.48;145183;1260;97912;-78
2023/03/15 09:29:51;;;;;;;2.00;1.20;;;;;;;19.09;38.64;99625.16;145342;1260;98351;-77
2023/03/15 09:33:14;;;;;;;2.30;1.20;;;;;;;19.18;38.59;99626.19;144886;1260;97989;-80
2023/03/15 09:36:36;;;;;;;3.40;1.20;;;;;;;19.36;38.43;99626.64;145099;1256;97932;-80
2023/03/15 09:39:58;;;;;;;1.90;1.10;;;;;;;19.78;38.39;99633.52;145106;1256;111290;-79
2023/03/15 09:43:43;;;;;;;2.60;1.40;;;;;;;20.19;37.94;99634.90;145168;1260;99298;-79
2023/03/15 09:47:59;;;;;;;4.50;1.40;;;;;;;20.53;37.56;99637.48;144978;1257;112092;-80
2023/03/15 09:52:09;;;;;;;3.50;1.30;;;;;;;20.81;37.11;99632.28;144038;1267;111079;-78
2023/03/15 09:55:32;;;;;;;1.70;1.00;;;;;;;21.00;36.91;99628.85;143672;1274;111065;-78
2023/03/15 09:58:57;;;;;;;3.60;1.20;;;;;;;21.42;36.69;99628.44;143718;1274;98156;-80
2023/03/15 10:02:29;;;;;;;6.90;1.40;;;;;;;21.86;36.21;99626.23;143652;1270;111092;-80
2023/03/15 10:05:55;;;;;;;2.10;1.00;;;;;;;22.29;35.98;99633.54;143571;1273;112331;-78
2023/03/15 10:09:21;;;;;;;1.90;1.00;;;;;;;23.47;35.41;99627.77;143570;1275;111167;-80
2023/03/15 10:12:46;;;;;;;3.00;1.20;;;;;;;24.67;34.74;99630.76;143840;1270;110706;-80
2023/03/15 10:16:17;;;;;;;2.50;1.10;;;;;;;25.30;34.02;99637.89;143553;1270;102681;-79
2023/03/15 10:19:54;;;;;;;2.00;1.20;;;;;;;26.15;33.44;99640.52;143745;1273;102609;-79
2023/03/15 10:23:19;;;;;;;3.60;1.40;;;;;;;26.48;32.91;99636.85;144011;1269;103552;-79
2023/03/15 10:26:43;;;;;;;2.80;1.20;;;;;;;27.05;32.50;99645.91;144490;1273;102535;-78
2023/03/15 10:30:30;;;;;;;2.40;1.40;;;;;;;27.08;32.19;99646.80;144555;1268;102794;-80
2023/03/15 10:33:52;;;;;;;2.50;0.90;;;;;;;26.77;32.16;99654.58;144942;1257;102585;-79
2023/03/15 10:37:18;;;;;;;2.40;1.10;;;;;;;26.71;32.43;99649.92;144942;1260;102452;-80
2023/03/15 10:40:45;;;;;;;4.20;1.40;;;;;;;27.01;32.09;99648.45;144941;1260;99152;-80
2023/03/15 10:44:33;;;;;;;1.60;0.90;;;;;;;27.24;32.10;99638.04;144527;1257;102587;-79
2023/03/15 10:47:55;;;;;;;3.10;1.10;;;;;;;27.45;31.85;99647.56;144874;1260;102579;-79
2023/03/15 10:51:36;;;;;;;2.20;1.00;;;;;;;27.28;31.62;99644.45;144903;1257;102484;-79
2023/03/15 10:55:01;;;;;;;4.20;1.50;;;;;;;26.87;31.73;99640.27;144944;1260;102646;-78
2023/03/15 10:58:30;;;;;;;1.90;0.90;;;;;;;26.35;31.96;99643.61;144885;1259;102585;-80
2023/03/15 11:01:54;;;;;;;2.50;1.10;;;;;;;25.89;32.27;99643.16;145065;1257;102614;-78
2023/03/15 11:05:17;;;;;;;2.50;1.30;;;;;;;25.51;32.53;99645.76;144831;1257;102454;-79
2023/03/15 11:08:40;;;;;;;2.50;1.40;;;;;;;25.15;32.78;99640.38;144647;1259;97909;-80
2023/03/15 11:12:05;;;;;;;3.00;1.20;;;;;;;24.76;33.03;99637.26;145102;1260;99222;-79
2023/03/15 11:15:30;;;;;;;1.60;1.20;;;;;;;24.44;33.40;99642.98;145154;1256;102163;-79
2023/03/15 11:19:02;;;;;;;4.30;1.40;;;;;;;24.35;33.48;99642.84;144799;1257;103578;-79
2023/03/15 11:22:25;;;;;;;3.90;2.10;;;;;;;24.43;33.53;99640.38;144818;1257;102592;-78
2023/03/15 11:25:47;;;;;;;3.20;0.90;;;;;;;24.56;33.63;99641.02;144767;1258;98046;-79
2023/03/15 11:29:33;;;;;;;2.90;1.40;;;;;;;24.80;33.50;99644.52;144622;1260;98014;-78
2023/03/15 11:32:57;;;;;;;2.50;1.20;;;;;;;24.85;33.36;99652.49;144891;1280;98453;-79
2023/03/15 11:36:22;;;;;;;3.10;1.40;;;;;;;24.72;33.43;99649.33;144768;1264;98418;-79
2023/03/15 11:40:03;;;;;;;2.50;1.00;;;;;;;24.83;33.48;99643.85;144838;1257;98444;-79
2023/03/15 11:43:44;;;;;;;;;;;;;;;24.98;32.97;99641.39;144931;1260;97918;-79
2023/03/15 11:47:24;;;;;;;3.60;1.40;;;;;;;24.70;32.04;99641.98;145014;1257;98005;-79
2023/03/15 11:50:45;;;;;;;4.70;1.80;;;;;;;24.42;31.23;99642.35;144661;1260;99222;-78
2023/03/15 11:54:07;;;;;;;2.40;1.70;;;;;;;24.18;30.30;99645.74;144778;1259;98004;-79
2023/03/15 11:57:39;;;;;;;5.00;1.90;;;;;;;23.92;29.71;99647.76;144656;1257;98263;-78
2023/03/15 12:01:03;;;;;;;3.00;1.70;;;;;;;23.44;29.15;99650.44;145040;1256;108178;-79
2023/03/15 12:04:30;;;;;;;4.60;2.20;;;;;;;22.98;28.98;99648.02;144867;1256;107111;-78
2023/03/15 12:07:58;;;;;;;13.60;2.20;;;;;;;22.43;28.78;99649.73;144644;1261;107541;-84
2023/03/15 12:11:22;;;;;;;7.10;2.20;;;;;;;21.94;28.76;99652.83;144594;1264;107683;-77
2023/03/15 12:14:44;;;;;;;5.70;2.00;;;;;;;21.47;28.08;99657.27;145144;1256;99578;-77
2023/03/15 12:18:14;;;;;;;4.10;2.10;;;;;;;21.15;27.90;99651.16;144719;1258;98012;-77
2023/03/15 12:21:42;;;;;;;4.50;2.20;;;;;;;21.12;28.12;99661.54;144667;1260;98041;-78
2023/03/15 12:25:13;;;;;;;5.40;2.00;;;;;;;21.16;27.81;99665.10;144637;1261;98161;-76
2023/03/15 12:28:35;;;;;;;4.50;2.00;;;;;;;20.92;27.80;99663.55;144934;1257;97944;-77
2023/03/15 12:31:58;;;;;;;5.00;2.60;;;;;;;20.53;28.09;99670.14;144764;1257;97929;-79
2023/03/15 12:35:22;;;;;;;4.00;2.00;;;;;;;20.16;28.04;99671.17;144807;1257;97932;-77
2023/03/15 12:39:00;;;;;;;3.10;1.40;;;;;;;19.77;27.82;99677.11;145068;1259;98001;-76
2023/03/15 12:42:29;;;;;;;6.60;2.20;;;;;;;19.39;27.79;99678.70;144526;1257;97912;-77
2023/03/15 12:45:51;;;;;;;4.90;2.00;;;;;;;19.02;27.98;99682.04;144841;1263;97979;-77
2023/03/15 12:49:22;;;;;;;5.50;2.20;;;;;;;18.79;28.13;99687.45;144643;1257;97962;-76
2023/03/15 12:52:46;;;;;;;10.30;2.10;;;;;;;18.59;28.36;99696.29;144891;1260;97920;-78
2023/03/15 12:56:17;;;;;;;4.70;2.00;;;;;;;18.41;28.37;99694.54;144950;1260;99110;-76
2023/03/15 12:59:46;;;;;;;12.40;1.90;;;;;;;18.34;28.61;99702.94;144643;1260;97934;-77
2023/03/15 13:03:11;;;;;;;4.70;1.70;;;;;;;18.30;28.93;99704.94;144787;1257;97912;-77
2023/03/15 13:06:43;;;;;;;4.90;2.00;;;;;;;18.22;28.73;99710.54;145090;1256;98798;-78
2023/03/15 13:10:17;;;;;;;3.30;2.00;;;;;;;18.06;28.46;99713.48;144798;1259;99213;-77
2023/03/15 13:14:10;;;;;;;8.10;2.20;;;;;;;17.86;28.60;99717.67;145357;1257;98331;-77
2023/03/15 13:17:49;;;;;;;6.00;1.90;;;;;;;17.71;28.95;99716.84;144523;1261;99269;-79
2023/03/15 13:21:29;;;;;;;6.70;2.30;;;;;;;17.61;28.92;99724.73;144716;1260;98037;-77
2023/03/15 13:25:08;;;;;;;7.80;2.00;;;;;;;17.56;29.02;99724.80;145123;1261;97942;-77
2023/03/15 13:28:46;;;;;;;7.50;2.40;;;;;;;17.48;29.02;99729.85;144919;1260;98306;-80
2023/03/15 13:32:12;;;;;;;4.70;2.60;;;;;;;17.33;29.04;99733.05;144552;1260;98035;-77
2023/03/15 13:36:03;;;;;;;5.60;2.10;;;;;;;17.08;29.21;99734.63;145048;1260;99213;-78
2023/03/15 13:39:26;;;;;;;7.90;2.10;;;;;;;16.86;29.48;99736.14;145216;1260;98814;-76
2023/03/15 13:42:48;;;;;;;6.80;1.40;;;;;;;16.78;29.61;99743.97;145322;1260;99193;-78
2023/03/15 13:46:10;;;;;;;4.90;1.80;;;;;;;16.69;29.50;99743.50;145055;1257;98840;-76
2023/03/15 13:49:33;;;;;;;4.00;1.60;;;;;;;16.59;29.45;99750.83;144699;1261;97870;-78
2023/03/15 13:52:55;;;;;;;6.90;1.80;;;;;;;16.46;29.33;99752.18;145218;1257;99207;-77
2023/03/15 13:56:21;;;;;;;8.30;2.40;;;;;;;16.34;29.42;99753.88;144985;1259;97912;-78
2023/03/15 13:59:46;;;;;;;4.30;2.20;;;;;;;16.20;29.47;99751.56;144692;1260;111220;-77
2023/03/15 14:03:13;;;;;;;4.70;1.80;;;;;;;16.05;29.54;99754.84;145100;1260;111154;-78
2023/03/15 14:06:36;;;;;;;5.80;2.10;;;;;;;15.87;29.65;99757.80;145254;1260;111112;-77
2023/03/15 14:10:26;;;;;;;4.50;2.20;;;;;;;15.79;29.78;99760.33;144667;1260;97981;-78
2023/03/15 14:13:50;;;;;;;5.20;2.50;;;;;;;15.73;29.87;99756.69;144924;1260;110751;-75
2023/03/15 14:17:28;;;;;;;5.30;2.30;;;;;;;15.71;29.96;99761.25;144730;1257;111084;-74
2023/03/15 14:21:06;;;;;;;9.20;2.50;;;;;;;15.82;30.33;99762.75;144816;1260;111218;-76
2023/03/15 14:24:37;;;;;;;3.50;1.90;;;;;;;15.90;30.53;99768.30;144936;1257;111169;-75
2023/03/15 14:28:01;;;;;;;5.40;2.30;;;;;;;15.89;30.68;99775.14;144819;1262;110742;-74
2023/03/15 14:31:26;;;;;;;7.20;2.40;;;;;;;15.84;30.93;99779.73;144708;1257;97928;-75
2023/03/15 14:34:48;;;;;;;6.40;2.20;;;;;;;15.72;30.98;99775.96;144679;1262;111229;-74
2023/03/15 14:38:24;;;;;;;4.50;2.50;;;;;;;15.58;31.15;99781.64;144785;1259;99190;-78
2023/03/15 14:41:46;;;;;;;8.60;2.70;;;;;;;15.43;31.52;99781.02;144698;1260;111121;-81
2023/03/15 14:45:08;;;;;;;7.80;2.20;;;;;;;15.32;31.78;99783.71;145039;1257;97996;-76
2023/03/15 14:48:33;;;;;;;4.60;1.60;;;;;;;15.19;31.83;99791.13;145115;1260;98185;-75
2023/03/15 14:51:59;;;;;;;4.50;2.10;;;;;;;15.06;31.90;99790.66;145199;1260;101894;-75
2023/03/15 14:55:23;;;;;;;6.70;2.00;;;;;;;14.97;32.06;99796.13;145054;1260;101972;-73
2023/03/15 14:58:45;;;;;;;6.10;2.10;;;;;;;14.84;32.15;99797.56;144686;1263;102379;-75
2023/03/15 15:02:14;;;;;;;2.90;1.60;;;;;;;14.78;32.28;99799.67;144780;1258;98039;-74
2023/03/15 15:05:36;;;;;;;2.60;1.90;;;;;;;14.68;32.45;99800.58;145041;1259;101215;-75
2023/03/15 15:08:59;;;;;;;7.20;1.70;;;;;;;14.56;32.51;99796.75;144757;1272;98042;-72
2023/03/15 15:12:20;;;;;;;2.80;1.20;;;;;;;14.45;32.51;99803.91;144888;1257;97912;-73
2023/03/15 15:15:42;;;;;;;5.10;1.70;;;;;;;14.33;32.64;99807.25;144909;1259;98457;-74
2023/03/15 15:19:16;;;;;;;5.70;1.60;;;;;;;14.22;32.93;99804.45;144709;1262;107100;-74
2023/03/15 15:22:44;;;;;;;5.50;1.70;;;;;;;14.09;32.89;99806.02;145021;1260;97912;-74
2023/03/15 15:26:13;;;;;;;4.30;1.90;;;;;;;13.94;33.17;99814.06;144641;1262;107470;-73
2023/03/15 15:29:35;;;;;;;3.40;2.00;;;;;;;13.78;33.44;99816.48;144808;1261;107940;-73
2023/03/15 15:32:57;;;;;;;8.30;2.30;;;;;;;13.62;33.67;99818.55;144799;1267;99199;-72
2023/03/15 15:36:45;;;;;;;4.60;2.50;;;;;;;13.47;33.79;99824.98;144980;1259;98687;-74
2023/03/15 15:40:14;;;;;;;13.30;8.60;;;;;;;13.32;33.95;99828.25;144914;1259;98811;-73
2023/03/15 15:43:36;;;;;;;13.20;7.90;;;;;;;13.20;34.41;99836.02;144831;1257;98019;-72
2023/03/15 15:46:59;;;;;;;10.60;5.70;;;;;;;13.24;34.66;99846.17;144858;1260;97909;-72
2023/03/15 15:50:21;;;;;;;11.20;6.30;;;;;;;13.48;34.80;99850.64;145068;1261;98003;-72
2023/03/15 15:53:43;;;;;;;12.80;6.90;;;;;;;13.71;34.93;99855.60;144930;1263;97998;-75
2023/03/15 15:57:06;;;;;;;17.30;7.90;;;;;;;13.86;35.02;99854.75;144983;1260;97889;-73
2023/03/15 16:00:29;;;;;;;20.40;9.00;;;;;;;13.98;35.01;99861.06;144897;1260;97909;-71
2023/03/15 16:03:51;;;;;;;15.50;8.10;;;;;;;14.05;35.03;99869.63;145193;1257;97921;-73